Terminal Aerodrome Forecast
Issued by NWS Charleston, SC

Home | Current Version | Previous Version | Text Only | Print | Product List | Glossary On
Versions: 1 2 3 4 5 6 7 8 9 10 11 12 13 14 15 16 17 18 19 20 21 22 23 24 25 26 27 28 29 30 31 32 33 34
000
FTUS42 KCHS 180500
TAFSAV
TAF
KSAV 180534Z 1806/1906 00000KT P6SM SCT015 BKN080
     FM180900 00000KT 4SM BR SCT009 BKN020
     FM181300 05005KT P6SM SCT025
     FM181900 11009KT P6SM SCT035 BKN200
     FM190000 08004KT P6SM SCT025 BKN150=

USA.gov is the U.S. government's official web portal to all federal, state and local government web resources and services.